sensor_id;sensor_type;location;lat;lon;timestamp;P1;durP1;ratioP1;P2;durP2;ratioP2
12768;SDS011;6448;48.916;8.990;2022-07-12T00:00:15;1.30;;;1.20;;
12768;SDS011;6448;48.916;8.990;2022-07-12T00:01:17;1.00;;;1.00;;
12768;SDS011;6448;48.916;8.990;2022-07-12T00:02:18;1.20;;;1.10;;
12768;SDS011;6448;48.916;8.990;2022-07-12T00:03:20;1.00;;;1.00;;
12768;SDS011;6448;48.916;8.990;2022-07-12T00:04:20;1.00;;;1.00;;
12768;SDS011;6448;48.916;8.990;2022-07-12T00:05:22;1.20;;;1.10;;
12768;SDS011;6448;48.916;8.990;2022-07-12T00:06:23;1.30;;;1.20;;
12768;SDS011;6448;48.916;8.990;2022-07-12T00:07:25;1.10;;;1.10;;
12768;SDS011;6448;48.916;8.990;2022-07-12T00:08:25;1.23;;;1.13;;
12768;SDS011;6448;48.916;8.990;2022-07-12T00:09:27;1.08;;;1.08;;
12768;SDS011;6448;48.916;8.990;2022-07-12T00:10:28;1.20;;;1.10;;
12768;SDS011;6448;48.916;8.990;2022-07-12T00:11:30;3.10;;;1.20;;
12768;SDS011;6448;48.916;8.990;2022-07-12T00:12:32;1.10;;;1.00;;
12768;SDS011;6448;48.916;8.990;2022-07-12T00:13:34;1.13;;;1.02;;
12768;SDS011;6448;48.916;8.990;2022-07-12T00:14:36;1.20;;;1.10;;
12768;SDS011;6448;48.916;8.990;2022-07-12T00:15:38;1.63;;;1.10;;
12768;SDS011;6448;48.916;8.990;2022-07-12T00:16:39;1.03;;;1.03;;
12768;SDS011;6448;48.916;8.990;2022-07-12T00:17:41;1.20;;;1.10;;
12768;SDS011;6448;48.916;8.990;2022-07-12T00:18:41;1.17;;;1.07;;
12768;SDS011;6448;48.916;8.990;2022-07-12T00:19:43;1.20;;;1.10;;
12768;SDS011;6448;48.916;8.990;2022-07-12T00:20:44;0.95;;;0.95;;
12768;SDS011;6448;48.916;8.990;2022-07-12T00:21:46;1.38;;;1.10;;
12768;SDS011;6448;48.916;8.990;2022-07-12T00:22:47;1.15;;;1.08;;
12768;SDS011;6448;48.916;8.990;2022-07-12T00:23:49;0.90;;;0.90;;
12768;SDS011;6448;48.916;8.990;2022-07-12T00:24:50;1.00;;;1.00;;
12768;SDS011;6448;48.916;8.990;2022-07-12T00:25:51;0.90;;;0.90;;
12768;SDS011;6448;48.916;8.990;2022-07-12T00:26:52;1.10;;;1.10;;
12768;SDS011;6448;48.916;8.990;2022-07-12T00:27:54;1.00;;;1.00;;
12768;SDS011;6448;48.916;8.990;2022-07-12T00:28:55;1.30;;;1.13;;
12768;SDS011;6448;48.916;8.990;2022-07-12T00:29:58;1.23;;;1.13;;
12768;SDS011;6448;48.916;8.990;2022-07-12T00:30:59;0.97;;;0.97;;
12768;SDS011;6448;48.916;8.990;2022-07-12T00:32:01;1.10;;;1.00;;
12768;SDS011;6448;48.916;8.990;2022-07-12T00:33:02;1.08;;;1.08;;
12768;SDS011;6448;48.916;8.990;2022-07-12T00:34:04;1.20;;;1.10;;
12768;SDS011;6448;48.916;8.990;2022-07-12T00:35:05;1.20;;;1.10;;
12768;SDS011;6448;48.916;8.990;2022-07-12T00:36:07;1.20;;;1.10;;
12768;SDS011;6448;48.916;8.990;2022-07-12T00:37:08;1.00;;;1.00;;
12768;SDS011;6448;48.916;8.990;2022-07-12T00:38:10;1.00;;;1.00;;
12768;SDS011;6448;48.916;8.990;2022-07-12T00:39:11;1.00;;;1.00;;
12768;SDS011;6448;48.916;8.990;2022-07-12T00:40:13;1.10;;;1.00;;
12768;SDS011;6448;48.916;8.990;2022-07-12T00:41:13;1.00;;;1.00;;
12768;SDS011;6448;48.916;8.990;2022-07-12T00:42:15;1.27;;;1.17;;
12768;SDS011;6448;48.916;8.990;2022-07-12T00:43:16;1.10;;;1.00;;
12768;SDS011;6448;48.916;8.990;2022-07-12T00:44:18;0.90;;;0.90;;
12768;SDS011;6448;48.916;8.990;2022-07-12T00:45:20;1.00;;;1.00;;
12768;SDS011;6448;48.916;8.990;2022-07-12T00:46:22;1.00;;;1.00;;
12768;SDS011;6448;48.916;8.990;2022-07-12T00:47:27;1.20;;;1.10;;
12768;SDS011;6448;48.916;8.990;2022-07-12T00:48:34;1.20;;;1.10;;
12768;SDS011;6448;48.916;8.990;2022-07-12T00:49:36;1.20;;;1.10;;
12768;SDS011;6448;48.916;8.990;2022-07-12T00:50:37;1.10;;;1.10;;
12768;SDS011;6448;48.916;8.990;2022-07-12T00:51:38;1.00;;;1.00;;
12768;SDS011;6448;48.916;8.990;2022-07-12T00:52:41;1.00;;;1.00;;
12768;SDS011;6448;48.916;8.990;2022-07-12T00:53:42;1.10;;;1.00;;
12768;SDS011;6448;48.916;8.990;2022-07-12T00:54:45;1.10;;;1.10;;
12768;SDS011;6448;48.916;8.990;2022-07-12T00:55:45;1.30;;;1.20;;
12768;SDS011;6448;48.916;8.990;2022-07-12T00:56:47;1.10;;;1.10;;
12768;SDS011;6448;48.916;8.990;2022-07-12T00:57:48;1.17;;;1.10;;
12768;SDS011;6448;48.916;8.990;2022-07-12T00:58:50;1.15;;;1.05;;
12768;SDS011;6448;48.916;8.990;2022-07-12T00:59:51;3.10;;;1.38;;
12768;SDS011;6448;48.916;8.990;2022-07-12T01:00:55;1.00;;;1.00;;
12768;SDS011;6448;48.916;8.990;2022-07-12T01:01:56;1.20;;;1.10;;
12768;SDS011;6448;48.916;8.990;2022-07-12T01:03:00;1.23;;;1.13;;
12768;SDS011;6448;48.916;8.990;2022-07-12T01:04:01;1.20;;;1.10;;
12768;SDS011;6448;48.916;8.990;2022-07-12T01:05:04;0.90;;;0.90;;
12768;SDS011;6448;48.916;8.990;2022-07-12T01:06:06;1.25;;;1.17;;
12768;SDS011;6448;48.916;8.990;2022-07-12T01:07:08;1.00;;;1.00;;
12768;SDS011;6448;48.916;8.990;2022-07-12T01:08:10;0.97;;;0.97;;
12768;SDS011;6448;48.916;8.990;2022-07-12T01:09:12;1.20;;;1.10;;
12768;SDS011;6448;48.916;8.990;2022-07-12T01:10:13;1.20;;;1.10;;
12768;SDS011;6448;48.916;8.990;2022-07-12T01:11:15;1.58;;;1.10;;
12768;SDS011;6448;48.916;8.990;2022-07-12T01:12:16;1.10;;;1.00;;
12768;SDS011;6448;48.916;8.990;2022-07-12T01:13:19;1.00;;;1.00;;
12768;SDS011;6448;48.916;8.990;2022-07-12T01:14:20;1.20;;;1.10;;
12768;SDS011;6448;48.916;8.990;2022-07-12T01:15:22;1.02;;;1.02;;
12768;SDS011;6448;48.916;8.990;2022-07-12T01:16:24;2.13;;;1.17;;
12768;SDS011;6448;48.916;8.990;2022-07-12T01:17:27;1.00;;;1.00;;
12768;SDS011;6448;48.916;8.990;2022-07-12T01:18:28;1.00;;;1.00;;
12768;SDS011;6448;48.916;8.990;2022-07-12T01:19:30;1.50;;;1.20;;
12768;SDS011;6448;48.916;8.990;2022-07-12T01:20:32;1.20;;;1.10;;
12768;SDS011;6448;48.916;8.990;2022-07-12T01:21:36;1.00;;;1.00;;
12768;SDS011;6448;48.916;8.990;2022-07-12T01:22:39;1.10;;;1.00;;
12768;SDS011;6448;48.916;8.990;2022-07-12T01:23:43;1.13;;;1.05;;
12768;SDS011;6448;48.916;8.990;2022-07-12T01:24:45;1.05;;;1.02;;
12768;SDS011;6448;48.916;8.990;2022-07-12T01:25:47;1.30;;;1.20;;
12768;SDS011;6448;48.916;8.990;2022-07-12T01:26:49;1.05;;;1.05;;
12768;SDS011;6448;48.916;8.990;2022-07-12T01:27:51;1.13;;;1.02;;
12768;SDS011;6448;48.916;8.990;2022-07-12T01:28:53;1.02;;;1.00;;
12768;SDS011;6448;48.916;8.990;2022-07-12T01:29:55;1.00;;;1.00;;
12768;SDS011;6448;48.916;8.990;2022-07-12T01:30:57;1.10;;;1.10;;
12768;SDS011;6448;48.916;8.990;2022-07-12T01:31:59;1.35;;;1.25;;
12768;SDS011;6448;48.916;8.990;2022-07-12T01:33:22;1.00;;;1.00;;
12768;SDS011;6448;48.916;8.990;2022-07-12T01:34:26;1.25;;;1.15;;
12768;SDS011;6448;48.916;8.990;2022-07-12T01:35:27;1.20;;;1.20;;
12768;SDS011;6448;48.916;8.990;2022-07-12T01:36:30;1.40;;;1.10;;
12768;SDS011;6448;48.916;8.990;2022-07-12T01:37:32;1.30;;;1.20;;
12768;SDS011;6448;48.916;8.990;2022-07-12T01:38:35;1.20;;;1.10;;
12768;SDS011;6448;48.916;8.990;2022-07-12T01:39:37;1.30;;;1.20;;
12768;SDS011;6448;48.916;8.990;2022-07-12T01:40:39;1.08;;;1.08;;
12768;SDS011;6448;48.916;8.990;2022-07-12T01:41:41;1.20;;;1.10;;
12768;SDS011;6448;48.916;8.990;2022-07-12T01:42:42;1.20;;;1.10;;
12768;SDS011;6448;48.916;8.990;2022-07-12T01:43:45;1.10;;;1.10;;
12768;SDS011;6448;48.916;8.990;2022-07-12T01:44:45;1.20;;;1.10;;
12768;SDS011;6448;48.916;8.990;2022-07-12T01:45:48;1.00;;;1.00;;
12768;SDS011;6448;48.916;8.990;2022-07-12T01:46:49;1.30;;;1.20;;
12768;SDS011;6448;48.916;8.990;2022-07-12T01:47:51;1.20;;;1.10;;
12768;SDS011;6448;48.916;8.990;2022-07-12T01:48:52;1.50;;;1.20;;
12768;SDS011;6448;48.916;8.990;2022-07-12T01:49:54;3.60;;;1.38;;
12768;SDS011;6448;48.916;8.990;2022-07-12T01:50:55;1.15;;;1.15;;
12768;SDS011;6448;48.916;8.990;2022-07-12T01:51:57;1.03;;;1.03;;
12768;SDS011;6448;48.916;8.990;2022-07-12T01:52:58;1.10;;;1.00;;
12768;SDS011;6448;48.916;8.990;2022-07-12T01:54:02;1.38;;;1.27;;
12768;SDS011;6448;48.916;8.990;2022-07-12T01:55:05;1.20;;;1.10;;
12768;SDS011;6448;48.916;8.990;2022-07-12T01:56:07;1.27;;;1.20;;
12768;SDS011;6448;48.916;8.990;2022-07-12T01:57:09;1.30;;;1.20;;
12768;SDS011;6448;48.916;8.990;2022-07-12T01:58:11;1.10;;;1.10;;
12768;SDS011;6448;48.916;8.990;2022-07-12T01:59:13;1.30;;;1.10;;
12768;SDS011;6448;48.916;8.990;2022-07-12T02:00:15;1.02;;;1.02;;
12768;SDS011;6448;48.916;8.990;2022-07-12T02:01:17;1.10;;;1.10;;
12768;SDS011;6448;48.916;8.990;2022-07-12T02:02:19;1.33;;;1.13;;
12768;SDS011;6448;48.916;8.990;2022-07-12T02:03:21;1.40;;;1.30;;
12768;SDS011;6448;48.916;8.990;2022-07-12T02:04:22;1.17;;;1.10;;
12768;SDS011;6448;48.916;8.990;2022-07-12T02:05:23;1.10;;;1.10;;
12768;SDS011;6448;48.916;8.990;2022-07-12T02:06:25;1.20;;;1.10;;
12768;SDS011;6448;48.916;8.990;2022-07-12T02:07:26;1.27;;;1.13;;
12768;SDS011;6448;48.916;8.990;2022-07-12T02:08:28;1.10;;;1.10;;
12768;SDS011;6448;48.916;8.990;2022-07-12T02:09:29;1.30;;;1.20;;
12768;SDS011;6448;48.916;8.990;2022-07-12T02:10:32;1.67;;;1.27;;
12768;SDS011;6448;48.916;8.990;2022-07-12T02:11:33;1.23;;;1.10;;
12768;SDS011;6448;48.916;8.990;2022-07-12T02:12:35;1.10;;;1.10;;
12768;SDS011;6448;48.916;8.990;2022-07-12T02:13:37;1.15;;;1.08;;
12768;SDS011;6448;48.916;8.990;2022-07-12T02:14:38;1.00;;;1.00;;
12768;SDS011;6448;48.916;8.990;2022-07-12T02:15:40;1.10;;;1.10;;
12768;SDS011;6448;48.916;8.990;2022-07-12T02:16:42;1.30;;;1.20;;
12768;SDS011;6448;48.916;8.990;2022-07-12T02:17:43;2.00;;;1.25;;
12768;SDS011;6448;48.916;8.990;2022-07-12T02:18:46;1.20;;;1.10;;
12768;SDS011;6448;48.916;8.990;2022-07-12T02:19:46;1.13;;;1.13;;
12768;SDS011;6448;48.916;8.990;2022-07-12T02:20:48;1.10;;;1.10;;
12768;SDS011;6448;48.916;8.990;2022-07-12T02:21:49;1.30;;;1.20;;
12768;SDS011;6448;48.916;8.990;2022-07-12T02:22:51;1.20;;;1.10;;
12768;SDS011;6448;48.916;8.990;2022-07-12T02:23:52;1.13;;;1.10;;
12768;SDS011;6448;48.916;8.990;2022-07-12T02:24:53;1.00;;;1.00;;
12768;SDS011;6448;48.916;8.990;2022-07-12T02:25:57;1.20;;;1.10;;
12768;SDS011;6448;48.916;8.990;2022-07-12T02:26:58;1.00;;;1.00;;
12768;SDS011;6448;48.916;8.990;2022-07-12T02:28:00;1.00;;;1.00;;
12768;SDS011;6448;48.916;8.990;2022-07-12T02:29:00;1.00;;;1.00;;
12768;SDS011;6448;48.916;8.990;2022-07-12T02:30:03;1.08;;;1.05;;
12768;SDS011;6448;48.916;8.990;2022-07-12T02:31:05;1.40;;;1.00;;
12768;SDS011;6448;48.916;8.990;2022-07-12T02:32:06;1.20;;;1.10;;
12768;SDS011;6448;48.916;8.990;2022-07-12T02:33:08;1.20;;;1.10;;
12768;SDS011;6448;48.916;8.990;2022-07-12T02:34:09;1.20;;;1.10;;
12768;SDS011;6448;48.916;8.990;2022-07-12T02:35:10;1.00;;;1.00;;
12768;SDS011;6448;48.916;8.990;2022-07-12T02:36:12;1.23;;;1.13;;
12768;SDS011;6448;48.916;8.990;2022-07-12T02:37:13;1.02;;;1.00;;
12768;SDS011;6448;48.916;8.990;2022-07-12T02:38:15;1.00;;;1.00;;
12768;SDS011;6448;48.916;8.990;2022-07-12T02:39:15;1.20;;;1.10;;
12768;SDS011;6448;48.916;8.990;2022-07-12T02:40:17;1.15;;;1.05;;
12768;SDS011;6448;48.916;8.990;2022-07-12T02:41:38;1.02;;;1.02;;
12768;SDS011;6448;48.916;8.990;2022-07-12T02:42:40;1.23;;;1.17;;
12768;SDS011;6448;48.916;8.990;2022-07-12T02:43:41;1.00;;;1.00;;
12768;SDS011;6448;48.916;8.990;2022-07-12T02:44:43;1.20;;;1.10;;
12768;SDS011;6448;48.916;8.990;2022-07-12T02:45:45;1.10;;;1.00;;
12768;SDS011;6448;48.916;8.990;2022-07-12T02:46:46;1.30;;;1.13;;
12768;SDS011;6448;48.916;8.990;2022-07-12T02:47:47;1.30;;;1.20;;
12768;SDS011;6448;48.916;8.990;2022-07-12T02:48:48;1.15;;;1.10;;
12768;SDS011;6448;48.916;8.990;2022-07-12T02:49:50;1.20;;;1.10;;
12768;SDS011;6448;48.916;8.990;2022-07-12T02:50:51;1.05;;;1.05;;
12768;SDS011;6448;48.916;8.990;2022-07-12T02:51:52;1.10;;;1.10;;
12768;SDS011;6448;48.916;8.990;2022-07-12T02:52:53;1.10;;;1.10;;
12768;SDS011;6448;48.916;8.990;2022-07-12T02:53:55;1.33;;;1.23;;
12768;SDS011;6448;48.916;8.990;2022-07-12T02:54:56;1.20;;;1.10;;
12768;SDS011;6448;48.916;8.990;2022-07-12T02:55:58;1.20;;;1.10;;
12768;SDS011;6448;48.916;8.990;2022-07-12T02:57:00;1.10;;;1.10;;
12768;SDS011;6448;48.916;8.990;2022-07-12T02:58:01;1.20;;;1.10;;
12768;SDS011;6448;48.916;8.990;2022-07-12T02:59:03;1.20;;;1.10;;
12768;SDS011;6448;48.916;8.990;2022-07-12T03:00:05;1.90;;;1.10;;
12768;SDS011;6448;48.916;8.990;2022-07-12T03:01:07;1.70;;;1.02;;
12768;SDS011;6448;48.916;8.990;2022-07-12T03:02:09;1.20;;;1.10;;
12768;SDS011;6448;48.916;8.990;2022-07-12T03:03:10;1.37;;;1.23;;
12768;SDS011;6448;48.916;8.990;2022-07-12T03:04:12;1.20;;;1.10;;
12768;SDS011;6448;48.916;8.990;2022-07-12T03:05:13;1.00;;;1.00;;
12768;SDS011;6448;48.916;8.990;2022-07-12T03:06:15;1.05;;;1.05;;
12768;SDS011;6448;48.916;8.990;2022-07-12T03:07:16;0.90;;;0.90;;
12768;SDS011;6448;48.916;8.990;2022-07-12T03:08:17;1.17;;;1.10;;
12768;SDS011;6448;48.916;8.990;2022-07-12T03:09:18;1.05;;;1.05;;
12768;SDS011;6448;48.916;8.990;2022-07-12T03:10:20;1.30;;;1.20;;
12768;SDS011;6448;48.916;8.990;2022-07-12T03:11:21;1.10;;;1.10;;
12768;SDS011;6448;48.916;8.990;2022-07-12T03:12:24;1.10;;;1.10;;
12768;SDS011;6448;48.916;8.990;2022-07-12T03:13:25;0.98;;;0.98;;
12768;SDS011;6448;48.916;8.990;2022-07-12T03:14:26;1.00;;;1.00;;
12768;SDS011;6448;48.916;8.990;2022-07-12T03:15:27;1.25;;;1.15;;
12768;SDS011;6448;48.916;8.990;2022-07-12T03:16:29;1.15;;;1.15;;
12768;SDS011;6448;48.916;8.990;2022-07-12T03:17:31;1.20;;;1.20;;
12768;SDS011;6448;48.916;8.990;2022-07-12T03:18:32;1.30;;;1.20;;
12768;SDS011;6448;48.916;8.990;2022-07-12T03:19:34;1.20;;;1.10;;
12768;SDS011;6448;48.916;8.990;2022-07-12T03:20:35;1.20;;;1.10;;
12768;SDS011;6448;48.916;8.990;2022-07-12T03:21:36;1.13;;;1.13;;
12768;SDS011;6448;48.916;8.990;2022-07-12T03:22:37;1.05;;;1.02;;
12768;SDS011;6448;48.916;8.990;2022-07-12T03:23:39;1.13;;;1.10;;
12768;SDS011;6448;48.916;8.990;2022-07-12T03:24:40;1.15;;;1.05;;
12768;SDS011;6448;48.916;8.990;2022-07-12T03:25:42;1.10;;;1.10;;
12768;SDS011;6448;48.916;8.990;2022-07-12T03:26:42;1.30;;;1.20;;
12768;SDS011;6448;48.916;8.990;2022-07-12T03:27:45;1.20;;;1.10;;
12768;SDS011;6448;48.916;8.990;2022-07-12T03:28:46;1.05;;;1.05;;
12768;SDS011;6448;48.916;8.990;2022-07-12T03:29:48;1.10;;;1.10;;
12768;SDS011;6448;48.916;8.990;2022-07-12T03:30:49;1.05;;;1.02;;
12768;SDS011;6448;48.916;8.990;2022-07-12T03:31:51;1.00;;;1.00;;
12768;SDS011;6448;48.916;8.990;2022-07-12T03:32:52;1.10;;;1.00;;
12768;SDS011;6448;48.916;8.990;2022-07-12T03:33:54;1.30;;;1.20;;
12768;SDS011;6448;48.916;8.990;2022-07-12T03:34:54;1.23;;;1.13;;
12768;SDS011;6448;48.916;8.990;2022-07-12T03:35:56;1.25;;;1.15;;
12768;SDS011;6448;48.916;8.990;2022-07-12T03:36:57;1.40;;;1.30;;
12768;SDS011;6448;48.916;8.990;2022-07-12T03:37:59;1.20;;;1.10;;
12768;SDS011;6448;48.916;8.990;2022-07-12T03:38:59;1.20;;;1.20;;
12768;SDS011;6448;48.916;8.990;2022-07-12T03:40:01;1.10;;;1.10;;
12768;SDS011;6448;48.916;8.990;2022-07-12T03:41:02;1.15;;;1.13;;
12768;SDS011;6448;48.916;8.990;2022-07-12T03:42:04;1.20;;;1.10;;
12768;SDS011;6448;48.916;8.990;2022-07-12T03:43:06;1.25;;;1.17;;
12768;SDS011;6448;48.916;8.990;2022-07-12T03:44:08;1.10;;;1.10;;
12768;SDS011;6448;48.916;8.990;2022-07-12T03:45:09;1.10;;;1.10;;
12768;SDS011;6448;48.916;8.990;2022-07-12T03:46:11;2.40;;;1.20;;
12768;SDS011;6448;48.916;8.990;2022-07-12T03:47:13;1.20;;;1.10;;
12768;SDS011;6448;48.916;8.990;2022-07-12T03:48:14;1.10;;;1.10;;
12768;SDS011;6448;48.916;8.990;2022-07-12T03:49:16;1.30;;;1.20;;
12768;SDS011;6448;48.916;8.990;2022-07-12T03:50:17;1.27;;;1.17;;
12768;SDS011;6448;48.916;8.990;2022-07-12T03:51:19;1.30;;;1.20;;
12768;SDS011;6448;48.916;8.990;2022-07-12T03:52:20;1.43;;;1.20;;
12768;SDS011;6448;48.916;8.990;2022-07-12T03:53:21;1.20;;;1.10;;
12768;SDS011;6448;48.916;8.990;2022-07-12T03:54:22;1.30;;;1.20;;
12768;SDS011;6448;48.916;8.990;2022-07-12T03:55:24;1.40;;;1.30;;
12768;SDS011;6448;48.916;8.990;2022-07-12T03:56:25;1.13;;;1.10;;
12768;SDS011;6448;48.916;8.990;2022-07-12T03:57:44;1.10;;;1.10;;
12768;SDS011;6448;48.916;8.990;2022-07-12T03:58:47;1.30;;;1.20;;
12768;SDS011;6448;48.916;8.990;2022-07-12T03:59:48;1.30;;;1.20;;
12768;SDS011;6448;48.916;8.990;2022-07-12T04:00:50;1.08;;;1.08;;
12768;SDS011;6448;48.916;8.990;2022-07-12T04:01:51;1.00;;;1.00;;
12768;SDS011;6448;48.916;8.990;2022-07-12T04:02:52;1.10;;;1.10;;
12768;SDS011;6448;48.916;8.990;2022-07-12T04:03:54;1.20;;;1.10;;
12768;SDS011;6448;48.916;8.990;2022-07-12T04:04:55;1.20;;;1.10;;
12768;SDS011;6448;48.916;8.990;2022-07-12T04:06:01;1.30;;;1.20;;
12768;SDS011;6448;48.916;8.990;2022-07-12T04:07:01;1.30;;;1.20;;
12768;SDS011;6448;48.916;8.990;2022-07-12T04:08:04;1.33;;;1.20;;
12768;SDS011;6448;48.916;8.990;2022-07-12T04:09:06;1.13;;;1.10;;
12768;SDS011;6448;48.916;8.990;2022-07-12T04:10:07;0.98;;;0.98;;
12768;SDS011;6448;48.916;8.990;2022-07-12T04:11:09;1.30;;;1.20;;
12768;SDS011;6448;48.916;8.990;2022-07-12T04:12:10;1.60;;;1.20;;
12768;SDS011;6448;48.916;8.990;2022-07-12T04:13:11;1.30;;;1.20;;
12768;SDS011;6448;48.916;8.990;2022-07-12T04:14:14;1.25;;;1.15;;
12768;SDS011;6448;48.916;8.990;2022-07-12T04:15:15;1.40;;;1.30;;
12768;SDS011;6448;48.916;8.990;2022-07-12T04:16:17;1.10;;;1.10;;
12768;SDS011;6448;48.916;8.990;2022-07-12T04:17:17;1.23;;;1.13;;
12768;SDS011;6448;48.916;8.990;2022-07-12T04:18:19;1.40;;;1.30;;
12768;SDS011;6448;48.916;8.990;2022-07-12T04:19:20;1.10;;;1.10;;
12768;SDS011;6448;48.916;8.990;2022-07-12T04:20:24;1.30;;;1.20;;
12768;SDS011;6448;48.916;8.990;2022-07-12T04:21:25;1.10;;;1.10;;
12768;SDS011;6448;48.916;8.990;2022-07-12T04:22:26;1.30;;;1.20;;
12768;SDS011;6448;48.916;8.990;2022-07-12T04:23:29;1.10;;;1.10;;
12768;SDS011;6448;48.916;8.990;2022-07-12T04:24:29;1.30;;;1.20;;
12768;SDS011;6448;48.916;8.990;2022-07-12T04:25:31;1.30;;;1.20;;
12768;SDS011;6448;48.916;8.990;2022-07-12T04:26:33;1.38;;;1.20;;
12768;SDS011;6448;48.916;8.990;2022-07-12T04:27:34;1.30;;;1.20;;
12768;SDS011;6448;48.916;8.990;2022-07-12T04:28:36;1.30;;;1.20;;
12768;SDS011;6448;48.916;8.990;2022-07-12T04:29:38;1.30;;;1.20;;
12768;SDS011;6448;48.916;8.990;2022-07-12T04:30:40;1.30;;;1.20;;
12768;SDS011;6448;48.916;8.990;2022-07-12T04:31:43;1.27;;;1.17;;
12768;SDS011;6448;48.916;8.990;2022-07-12T04:32:45;1.30;;;1.20;;
12768;SDS011;6448;48.916;8.990;2022-07-12T04:33:46;1.20;;;1.10;;
12768;SDS011;6448;48.916;8.990;2022-07-12T04:34:47;1.08;;;1.08;;
12768;SDS011;6448;48.916;8.990;2022-07-12T04:35:48;1.37;;;1.27;;
12768;SDS011;6448;48.916;8.990;2022-07-12T04:36:50;1.45;;;1.35;;
12768;SDS011;6448;48.916;8.990;2022-07-12T04:37:51;1.33;;;1.23;;
12768;SDS011;6448;48.916;8.990;2022-07-12T04:38:55;2.15;;;1.35;;
12768;SDS011;6448;48.916;8.990;2022-07-12T04:39:56;1.45;;;1.35;;
12768;SDS011;6448;48.916;8.990;2022-07-12T04:40:58;1.42;;;1.10;;
12768;SDS011;6448;48.916;8.990;2022-07-12T04:41:59;1.38;;;1.27;;
12768;SDS011;6448;48.916;8.990;2022-07-12T04:43:00;1.20;;;1.10;;
12768;SDS011;6448;48.916;8.990;2022-07-12T04:44:02;1.57;;;1.20;;
12768;SDS011;6448;48.916;8.990;2022-07-12T04:45:06;1.33;;;1.23;;
12768;SDS011;6448;48.916;8.990;2022-07-12T04:46:08;1.30;;;1.20;;
12768;SDS011;6448;48.916;8.990;2022-07-12T04:47:10;1.30;;;1.20;;
12768;SDS011;6448;48.916;8.990;2022-07-12T04:48:12;1.30;;;1.20;;
12768;SDS011;6448;48.916;8.990;2022-07-12T04:49:13;1.33;;;1.23;;
12768;SDS011;6448;48.916;8.990;2022-07-12T04:50:14;1.33;;;1.25;;
12768;SDS011;6448;48.916;8.990;2022-07-12T04:51:15;1.50;;;1.37;;
12768;SDS011;6448;48.916;8.990;2022-07-12T04:52:17;1.40;;;1.30;;
12768;SDS011;6448;48.916;8.990;2022-07-12T04:53:19;1.40;;;1.30;;
12768;SDS011;6448;48.916;8.990;2022-07-12T04:54:20;1.40;;;1.20;;
12768;SDS011;6448;48.916;8.990;2022-07-12T04:55:22;1.30;;;1.20;;
12768;SDS011;6448;48.916;8.990;2022-07-12T04:56:22;1.40;;;1.30;;
12768;SDS011;6448;48.916;8.990;2022-07-12T04:57:24;1.27;;;1.17;;
12768;SDS011;6448;48.916;8.990;2022-07-12T04:58:25;1.63;;;1.20;;
12768;SDS011;6448;48.916;8.990;2022-07-12T04:59:27;1.40;;;1.30;;
12768;SDS011;6448;48.916;8.990;2022-07-12T05:00:29;1.40;;;1.30;;
12768;SDS011;6448;48.916;8.990;2022-07-12T05:01:31;1.50;;;1.40;;
12768;SDS011;6448;48.916;8.990;2022-07-12T05:02:32;1.48;;;1.38;;
12768;SDS011;6448;48.916;8.990;2022-07-12T05:03:34;1.60;;;1.20;;
12768;SDS011;6448;48.916;8.990;2022-07-12T05:04:35;2.00;;;1.30;;
12768;SDS011;6448;48.916;8.990;2022-07-12T05:05:37;1.40;;;1.30;;
12768;SDS011;6448;48.916;8.990;2022-07-12T05:06:37;1.50;;;1.40;;
12768;SDS011;6448;48.916;8.990;2022-07-12T05:07:39;1.40;;;1.30;;
12768;SDS011;6448;48.916;8.990;2022-07-12T05:08:40;1.50;;;1.40;;
12768;SDS011;6448;48.916;8.990;2022-07-12T05:09:42;1.60;;;1.25;;
12768;SDS011;6448;48.916;8.990;2022-07-12T05:10:43;1.40;;;1.30;;
12768;SDS011;6448;48.916;8.990;2022-07-12T05:11:44;1.38;;;1.25;;
12768;SDS011;6448;48.916;8.990;2022-07-12T05:12:45;1.77;;;1.30;;
12768;SDS011;6448;48.916;8.990;2022-07-12T05:13:47;1.40;;;1.30;;
12768;SDS011;6448;48.916;8.990;2022-07-12T05:14:48;1.58;;;1.33;;
12768;SDS011;6448;48.916;8.990;2022-07-12T05:15:51;1.60;;;1.25;;
12768;SDS011;6448;48.916;8.990;2022-07-12T05:16:52;1.45;;;1.30;;
12768;SDS011;6448;48.916;8.990;2022-07-12T05:17:54;1.50;;;1.35;;
12768;SDS011;6448;48.916;8.990;2022-07-12T05:18:54;1.58;;;1.48;;
12768;SDS011;6448;48.916;8.990;2022-07-12T05:19:56;1.40;;;1.30;;
12768;SDS011;6448;48.916;8.990;2022-07-12T05:20:57;1.73;;;1.27;;
12768;SDS011;6448;48.916;8.990;2022-07-12T05:21:59;1.13;;;1.08;;
12768;SDS011;6448;48.916;8.990;2022-07-12T05:22:59;1.40;;;1.30;;
12768;SDS011;6448;48.916;8.990;2022-07-12T05:24:01;1.50;;;1.40;;
12768;SDS011;6448;48.916;8.990;2022-07-12T05:25:04;1.40;;;1.30;;
12768;SDS011;6448;48.916;8.990;2022-07-12T05:26:06;1.30;;;1.20;;
12768;SDS011;6448;48.916;8.990;2022-07-12T05:27:06;1.20;;;1.20;;
12768;SDS011;6448;48.916;8.990;2022-07-12T05:28:09;1.30;;;1.20;;
12768;SDS011;6448;48.916;8.990;2022-07-12T05:29:11;1.60;;;1.33;;
12768;SDS011;6448;48.916;8.990;2022-07-12T05:30:13;1.83;;;1.35;;
12768;SDS011;6448;48.916;8.990;2022-07-12T05:31:15;1.40;;;1.30;;
12768;SDS011;6448;48.916;8.990;2022-07-12T05:32:17;1.40;;;1.30;;
12768;SDS011;6448;48.916;8.990;2022-07-12T05:33:18;1.70;;;1.38;;
12768;SDS011;6448;48.916;8.990;2022-07-12T05:34:19;1.30;;;1.20;;
12768;SDS011;6448;48.916;8.990;2022-07-12T05:35:20;1.48;;;1.38;;
12768;SDS011;6448;48.916;8.990;2022-07-12T05:36:22;1.50;;;1.40;;
12768;SDS011;6448;48.916;8.990;2022-07-12T05:37:23;1.50;;;1.40;;
12768;SDS011;6448;48.916;8.990;2022-07-12T05:38:25;1.70;;;1.45;;
12768;SDS011;6448;48.916;8.990;2022-07-12T05:39:26;1.48;;;1.38;;
12768;SDS011;6448;48.916;8.990;2022-07-12T05:40:28;1.40;;;1.30;;
12768;SDS011;6448;48.916;8.990;2022-07-12T05:41:28;1.30;;;1.20;;
12768;SDS011;6448;48.916;8.990;2022-07-12T05:42:30;1.30;;;1.20;;
12768;SDS011;6448;48.916;8.990;2022-07-12T05:43:31;1.50;;;1.40;;
12768;SDS011;6448;48.916;8.990;2022-07-12T05:44:33;1.50;;;1.40;;
12768;SDS011;6448;48.916;8.990;2022-07-12T05:45:34;1.40;;;1.30;;
12768;SDS011;6448;48.916;8.990;2022-07-12T05:46:37;1.92;;;1.30;;
12768;SDS011;6448;48.916;8.990;2022-07-12T05:47:38;1.40;;;1.30;;
12768;SDS011;6448;48.916;8.990;2022-07-12T05:48:39;1.80;;;1.40;;
12768;SDS011;6448;48.916;8.990;2022-07-12T05:49:41;1.58;;;1.48;;
12768;SDS011;6448;48.916;8.990;2022-07-12T05:50:42;1.50;;;1.40;;
12768;SDS011;6448;48.916;8.990;2022-07-12T05:51:44;1.63;;;1.42;;
12768;SDS011;6448;48.916;8.990;2022-07-12T05:53:03;1.50;;;1.30;;
12768;SDS011;6448;48.916;8.990;2022-07-12T05:54:21;1.30;;;1.20;;
12768;SDS011;6448;48.916;8.990;2022-07-12T05:55:22;1.40;;;1.30;;
12768;SDS011;6448;48.916;8.990;2022-07-12T05:56:24;1.30;;;1.20;;
12768;SDS011;6448;48.916;8.990;2022-07-12T05:57:31;1.40;;;1.30;;
12768;SDS011;6448;48.916;8.990;2022-07-12T05:58:32;1.50;;;1.40;;
12768;SDS011;6448;48.916;8.990;2022-07-12T05:59:34;1.30;;;1.20;;
12768;SDS011;6448;48.916;8.990;2022-07-12T06:00:35;1.40;;;1.30;;
12768;SDS011;6448;48.916;8.990;2022-07-12T06:01:38;1.30;;;1.20;;
12768;SDS011;6448;48.916;8.990;2022-07-12T06:02:40;1.52;;;1.42;;
12768;SDS011;6448;48.916;8.990;2022-07-12T06:03:41;1.35;;;1.25;;
12768;SDS011;6448;48.916;8.990;2022-07-12T06:04:47;1.40;;;1.30;;
12768;SDS011;6448;48.916;8.990;2022-07-12T06:05:48;1.30;;;1.20;;
12768;SDS011;6448;48.916;8.990;2022-07-12T06:06:50;1.40;;;1.30;;
12768;SDS011;6448;48.916;8.990;2022-07-12T06:07:57;1.50;;;1.40;;
12768;SDS011;6448;48.916;8.990;2022-07-12T06:09:36;1.42;;;1.33;;
12768;SDS011;6448;48.916;8.990;2022-07-12T06:10:37;1.50;;;1.40;;
12768;SDS011;6448;48.916;8.990;2022-07-12T06:11:39;1.40;;;1.30;;
12768;SDS011;6448;48.916;8.990;2022-07-12T06:12:40;1.30;;;1.25;;
12768;SDS011;6448;48.916;8.990;2022-07-12T06:13:42;1.48;;;1.35;;
12768;SDS011;6448;48.916;8.990;2022-07-12T06:14:43;1.37;;;1.27;;
12768;SDS011;6448;48.916;8.990;2022-07-12T06:15:44;1.50;;;1.40;;
12768;SDS011;6448;48.916;8.990;2022-07-12T06:16:48;1.57;;;1.40;;
12768;SDS011;6448;48.916;8.990;2022-07-12T06:18:00;1.40;;;1.30;;
12768;SDS011;6448;48.916;8.990;2022-07-12T06:19:01;1.40;;;1.30;;